createdAt,value
2022-09-15T00:02:57.602Z,19.20
2022-09-15T00:06:20.295Z,19.30
2022-09-15T00:09:42.231Z,19.20
2022-09-15T00:13:04.479Z,19.10
2022-09-15T00:16:28.966Z,19.10
2022-09-15T00:19:51.254Z,19.10
2022-09-15T00:23:15.193Z,19.10
2022-09-15T00:26:37.746Z,18.90
2022-09-15T00:30:00.129Z,18.90
2022-09-15T00:33:23.760Z,18.90
2022-09-15T00:36:45.770Z,18.80
2022-09-15T00:40:08.353Z,18.80
2022-09-15T00:44:00.163Z,18.80
2022-09-15T00:47:27.487Z,18.80
2022-09-15T00:50:55.719Z,18.70
2022-09-15T00:54:26.433Z,18.70
2022-09-15T00:57:54.138Z,18.50
2022-09-15T01:01:16.621Z,18.40
2022-09-15T01:04:39.017Z,18.30
2022-09-15T01:08:09.913Z,18.30
2022-09-15T01:11:32.325Z,18.30
2022-09-15T01:14:54.982Z,18.30
2022-09-15T01:18:27.279Z,18.30
2022-09-15T01:22:08.019Z,18.20
2022-09-15T01:26:09.044Z,18.20
2022-09-15T01:29:42.995Z,18.20
2022-09-15T01:33:04.979Z,18.20
2022-09-15T01:36:43.900Z,18.20
2022-09-15T01:40:09.130Z,18.20
2022-09-15T01:43:35.435Z,18.30
2022-09-15T01:47:02.607Z,18.30
2022-09-15T01:50:33.872Z,18.20
2022-09-15T01:53:57.003Z,18.20
2022-09-15T01:57:22.156Z,18.20
2022-09-15T02:00:49.771Z,18.20
2022-09-15T02:04:36.869Z,18.10
2022-09-15T02:08:25.732Z,18.00
2022-09-15T02:12:10.698Z,18.00
2022-09-15T02:15:48.040Z,18.00
2022-09-15T02:19:49.172Z,17.90
2022-09-15T02:23:40.428Z,17.90
2022-09-15T02:27:04.854Z,17.80
2022-09-15T02:30:29.564Z,17.80
2022-09-15T02:34:00.235Z,17.80
2022-09-15T02:37:25.199Z,17.80
2022-09-15T02:40:47.963Z,17.90
2022-09-15T02:44:10.494Z,17.90
2022-09-15T02:47:32.553Z,17.90
2022-09-15T02:50:54.927Z,17.90
2022-09-15T02:54:17.037Z,17.90
2022-09-15T02:57:39.055Z,17.90
2022-09-15T03:01:05.328Z,17.90
2022-09-15T03:04:27.417Z,17.90
2022-09-15T03:07:49.795Z,17.80
2022-09-15T03:11:12.242Z,17.80
2022-09-15T03:14:35.847Z,17.80
2022-09-15T03:17:58.657Z,17.80
2022-09-15T03:21:22.602Z,17.80
2022-09-15T03:24:45.530Z,17.80
2022-09-15T03:28:08.863Z,17.70
2022-09-15T03:31:32.315Z,17.70
2022-09-15T03:34:58.391Z,17.70
2022-09-15T03:38:21.911Z,17.70
2022-09-15T03:41:44.918Z,17.60
2022-09-15T03:45:08.193Z,17.60
2022-09-15T03:48:33.250Z,17.60
2022-09-15T03:51:55.786Z,17.60
2022-09-15T03:55:17.787Z,17.60
2022-09-15T03:58:40.147Z,17.50
2022-09-15T04:02:02.251Z,17.50
2022-09-15T04:05:24.238Z,17.50
2022-09-15T04:08:46.509Z,17.50
2022-09-15T04:12:08.486Z,17.50
2022-09-15T04:15:30.479Z,17.40
2022-09-15T04:18:52.987Z,17.40
2022-09-15T04:22:17.897Z,17.40
2022-09-15T04:25:40.051Z,17.40
2022-09-15T04:29:04.802Z,17.40
2022-09-15T04:32:29.295Z,17.30
2022-09-15T04:35:59.109Z,17.40
2022-09-15T04:39:21.171Z,17.30
2022-09-15T04:42:43.261Z,17.30
2022-09-15T04:46:05.401Z,17.30
2022-09-15T04:49:28.906Z,17.30
2022-09-15T04:52:52.121Z,17.30
2022-09-15T04:56:18.000Z,17.30
2022-09-15T04:59:40.569Z,17.40
2022-09-15T05:03:02.501Z,17.40
2022-09-15T05:06:27.008Z,17.40
2022-09-15T05:09:49.011Z,17.40
2022-09-15T05:13:11.038Z,17.40
2022-09-15T05:16:33.337Z,17.50
2022-09-15T05:19:59.183Z,17.60
2022-09-15T05:23:21.134Z,17.80
2022-09-15T05:26:43.610Z,18.00
2022-09-15T05:30:34.937Z,18.10
2022-09-15T05:33:51.480Z,18.20
2022-09-15T05:37:14.067Z,18.30
2022-09-15T05:40:36.296Z,18.40
2022-09-15T05:43:59.270Z,18.50
2022-09-15T05:47:21.228Z,18.50
2022-09-15T05:50:52.893Z,18.60
2022-09-15T05:54:14.850Z,18.70
2022-09-15T05:57:37.690Z,18.90
2022-09-15T06:01:17.262Z,19.00
2022-09-15T06:04:39.228Z,19.10
2022-09-15T06:08:01.439Z,19.30
2022-09-15T06:11:26.248Z,19.40
2022-09-15T06:14:50.581Z,19.40
2022-09-15T06:18:12.667Z,19.50
2022-09-15T06:21:34.820Z,19.50
2022-09-15T06:24:56.849Z,19.50
2022-09-15T06:28:19.599Z,19.60
2022-09-15T06:31:41.757Z,19.50
2022-09-15T06:35:07.824Z,19.60
2022-09-15T06:38:30.442Z,19.60
2022-09-15T06:42:02.270Z,19.70
2022-09-15T06:45:26.413Z,19.90
2022-09-15T06:48:49.003Z,20.00
2022-09-15T06:52:13.663Z,20.30
2022-09-15T06:55:35.617Z,20.60
2022-09-15T06:58:58.699Z,21.20
2022-09-15T07:02:20.730Z,22.00
2022-09-15T07:05:44.339Z,22.70
2022-09-15T07:09:07.169Z,23.10
2022-09-15T07:12:29.234Z,24.20
2022-09-15T07:15:57.389Z,25.50
2022-09-15T07:19:19.502Z,27.20
2022-09-15T07:22:42.417Z,27.00
2022-09-15T07:26:15.650Z,26.30
2022-09-15T07:29:38.846Z,25.20
2022-09-15T07:33:00.849Z,24.60
2022-09-15T07:36:23.026Z,24.40
2022-09-15T07:39:45.036Z,24.20
2022-09-15T07:43:07.153Z,24.40
2022-09-15T07:46:32.525Z,25.20
2022-09-15T07:49:54.451Z,25.70
2022-09-15T07:53:16.713Z,25.90
2022-09-15T07:56:38.736Z,26.30
2022-09-15T08:00:00.670Z,26.50
2022-09-15T08:03:22.613Z,26.60
2022-09-15T08:06:45.139Z,26.50
2022-09-15T08:10:07.582Z,26.30
2022-09-15T08:13:29.515Z,26.30
2022-09-15T08:16:52.932Z,26.30
2022-09-15T08:20:14.966Z,26.50
2022-09-15T08:23:37.932Z,26.60
2022-09-15T08:26:59.857Z,27.90
2022-09-15T08:30:22.369Z,29.60
2022-09-15T08:33:49.718Z,31.30
2022-09-15T08:37:11.751Z,33.30
2022-09-15T08:40:37.579Z,34.30
2022-09-15T08:44:20.470Z,35.20
2022-09-15T08:47:48.207Z,35.70
2022-09-15T08:51:19.826Z,36.40
2022-09-15T08:54:41.950Z,36.10
2022-09-15T08:58:05.408Z,36.30
2022-09-15T09:01:36.290Z,36.20
2022-09-15T09:05:03.364Z,36.30
2022-09-15T09:08:57.362Z,35.70
2022-09-15T09:12:41.285Z,36.50
2022-09-15T09:16:34.854Z,37.30
2022-09-15T09:20:17.314Z,38.10
2022-09-15T09:23:54.497Z,38.40
2022-09-15T09:27:20.584Z,38.40
2022-09-15T09:30:42.628Z,38.30
2022-09-15T09:34:24.001Z,38.20
2022-09-15T09:37:52.229Z,38.50
2022-09-15T09:41:40.458Z,38.60
2022-09-15T09:45:03.184Z,37.90
2022-09-15T09:48:26.961Z,37.90
2022-09-15T09:52:02.809Z,38.00
2022-09-15T09:55:27.843Z,38.20
2022-09-15T09:58:49.929Z,38.00
2022-09-15T10:02:11.823Z,37.70
2022-09-15T10:05:33.940Z,37.90
2022-09-15T10:09:00.284Z,37.70
2022-09-15T10:12:42.476Z,37.90
2022-09-15T10:16:06.806Z,37.60
2022-09-15T10:19:31.926Z,37.30
2022-09-15T10:23:06.557Z,37.20
2022-09-15T10:26:34.050Z,37.30
2022-09-15T10:29:58.770Z,37.30
2022-09-15T10:33:25.964Z,36.40
2022-09-15T10:36:47.993Z,34.70
2022-09-15T10:40:33.012Z,34.40
2022-09-15T10:43:58.146Z,34.20
2022-09-15T10:47:39.852Z,34.20
2022-09-15T10:51:16.067Z,34.30
2022-09-15T10:54:56.535Z,34.50
2022-09-15T10:58:18.460Z,34.80
2022-09-15T11:02:10.778Z,34.70
2022-09-15T11:05:52.996Z,34.30
2022-09-15T11:09:42.150Z,33.50
2022-09-15T11:13:37.345Z,32.70
2022-09-15T11:17:17.497Z,32.40
2022-09-15T11:20:59.207Z,32.70
2022-09-15T11:24:39.242Z,32.50
2022-09-15T11:28:22.926Z,32.00
2022-09-15T11:31:51.050Z,32.00
2022-09-15T11:35:40.517Z,32.60
2022-09-15T11:39:35.882Z,32.90
2022-09-15T11:43:06.207Z,33.00
2022-09-15T11:46:58.457Z,33.00
2022-09-15T11:50:35.870Z,33.10
2022-09-15T11:54:15.819Z,33.30
2022-09-15T11:57:46.240Z,33.20
2022-09-15T12:01:11.512Z,33.30
2022-09-15T12:05:00.751Z,33.30
2022-09-15T12:08:50.271Z,33.60
2022-09-15T12:12:19.728Z,33.70
2022-09-15T12:15:42.665Z,33.80
2022-09-15T12:19:21.870Z,33.90
2022-09-15T12:23:11.826Z,33.60
2022-09-15T12:26:34.557Z,33.40
2022-09-15T12:29:59.086Z,33.70
2022-09-15T12:33:42.532Z,33.20
2022-09-15T12:37:15.296Z,32.90
2022-09-15T12:40:39.886Z,32.50
2022-09-15T12:44:13.441Z,32.80
2022-09-15T12:47:49.142Z,32.80
2022-09-15T12:51:11.878Z,32.80
2022-09-15T12:54:35.194Z,32.30
2022-09-15T12:58:00.690Z,31.80
2022-09-15T13:01:22.836Z,31.90
2022-09-15T13:04:53.577Z,32.00
2022-09-15T13:08:38.731Z,32.40
2022-09-15T13:12:04.459Z,32.90
2022-09-15T13:15:27.886Z,32.70
2022-09-15T13:19:02.709Z,32.00
2022-09-15T13:22:36.241Z,31.30
2022-09-15T13:26:00.676Z,31.10
2022-09-15T13:29:24.482Z,31.00
2022-09-15T13:33:23.958Z,31.10
2022-09-15T13:40:56.841Z,31.40
2022-09-15T13:44:40.102Z,31.10
2022-09-15T13:48:14.412Z,31.00
2022-09-15T13:51:39.549Z,31.10
2022-09-15T13:55:23.244Z,31.20
2022-09-15T13:59:14.394Z,31.20
2022-09-15T14:02:29.158Z,31.50
2022-09-15T14:05:52.232Z,31.20
2022-09-15T14:09:21.789Z,31.20
2022-09-15T14:12:43.798Z,30.90
2022-09-15T14:16:19.267Z,30.70
2022-09-15T14:19:42.806Z,30.50
2022-09-15T14:23:16.622Z,30.60
2022-09-15T14:26:39.061Z,30.40
2022-09-15T14:30:22.887Z,30.00
2022-09-15T14:33:50.311Z,29.90
2022-09-15T14:37:20.039Z,30.30
2022-09-15T14:40:43.132Z,30.40
2022-09-15T14:48:26.890Z,30.10
2022-09-15T14:51:52.278Z,30.10
2022-09-15T14:55:28.405Z,29.90
2022-09-15T14:58:55.674Z,29.70
2022-09-15T15:02:34.834Z,29.30
2022-09-15T15:06:12.761Z,28.90
2022-09-15T15:09:46.941Z,28.50
2022-09-15T15:13:14.161Z,28.20
2022-09-15T15:16:37.246Z,28.00
2022-09-15T15:20:12.202Z,28.10
2022-09-15T15:23:34.309Z,28.30
2022-09-15T15:26:56.226Z,28.30
2022-09-15T15:30:30.847Z,28.30
2022-09-15T15:33:56.724Z,28.20
2022-09-15T15:37:29.396Z,28.10
2022-09-15T15:41:03.701Z,28.00
2022-09-15T15:44:34.391Z,27.90
2022-09-15T15:48:01.052Z,27.80
2022-09-15T15:51:23.387Z,27.60
2022-09-15T15:54:45.814Z,27.60
2022-09-15T15:58:10.274Z,27.50
2022-09-15T16:01:33.194Z,27.50
2022-09-15T16:04:55.310Z,27.50
2022-09-15T16:08:25.273Z,27.30
2022-09-15T16:11:48.270Z,27.20
2022-09-15T16:15:13.084Z,27.10
2022-09-15T16:18:35.568Z,27.10
2022-09-15T16:21:58.976Z,27.00
2022-09-15T16:25:43.461Z,26.90
2022-09-15T16:29:05.988Z,26.80
2022-09-15T16:32:28.680Z,26.70
2022-09-15T16:35:56.224Z,26.50
2022-09-15T16:39:18.184Z,26.30
2022-09-15T16:42:40.151Z,26.20
2022-09-15T16:46:02.154Z,26.10
2022-09-15T16:49:24.122Z,25.90
2022-09-15T16:52:46.058Z,25.70
2022-09-15T16:56:11.350Z,25.50
2022-09-15T16:59:33.446Z,25.30
2022-09-15T17:02:55.614Z,25.20
2022-09-15T17:06:18.738Z,25.00
2022-09-15T17:09:41.131Z,24.80
2022-09-15T17:13:04.251Z,24.70
2022-09-15T17:16:26.815Z,24.50
2022-09-15T17:19:48.876Z,24.30
2022-09-15T17:23:25.691Z,24.00
2022-09-15T17:26:47.715Z,23.90
2022-09-15T17:30:10.428Z,23.80
2022-09-15T17:33:33.266Z,23.70
2022-09-15T17:36:55.378Z,23.50
2022-09-15T17:40:18.899Z,23.30
2022-09-15T17:43:40.985Z,23.20
2022-09-15T17:47:03.889Z,23.10
2022-09-15T17:50:28.613Z,23.00
2022-09-15T17:53:50.689Z,23.00
2022-09-15T17:57:12.759Z,22.90
2022-09-15T18:00:37.195Z,22.80
2022-09-15T18:03:59.264Z,22.70
2022-09-15T18:07:23.460Z,22.60
2022-09-15T18:10:46.252Z,22.60
2022-09-15T18:14:09.956Z,22.50
2022-09-15T18:17:32.182Z,22.50
2022-09-15T18:20:56.798Z,22.50
2022-09-15T18:24:19.106Z,22.40
2022-09-15T18:27:43.780Z,22.20
2022-09-15T18:31:06.108Z,22.10
2022-09-15T18:34:28.190Z,22.10
2022-09-15T18:37:56.151Z,22.20
2022-09-15T18:41:18.984Z,22.20
2022-09-15T18:44:41.256Z,22.30
2022-09-15T18:48:04.100Z,22.30
2022-09-15T18:51:34.891Z,22.10
2022-09-15T18:55:12.816Z,22.00
2022-09-15T18:58:35.035Z,22.00
2022-09-15T19:01:57.530Z,22.00
2022-09-15T19:05:20.186Z,22.00
2022-09-15T19:08:42.770Z,22.00
2022-09-15T19:12:05.387Z,22.00
2022-09-15T19:15:29.389Z,22.00
2022-09-15T19:18:53.844Z,22.00
2022-09-15T19:22:16.370Z,21.90
2022-09-15T19:25:42.088Z,21.90
2022-09-15T19:29:05.132Z,21.80
2022-09-15T19:32:28.658Z,21.60
2022-09-15T19:36:05.057Z,21.60
2022-09-15T19:39:35.980Z,21.60
2022-09-15T19:42:58.808Z,21.50
2022-09-15T19:46:24.191Z,21.40
2022-09-15T19:49:49.231Z,21.20
2022-09-15T19:53:12.079Z,21.00
2022-09-15T19:56:36.049Z,21.00
2022-09-15T19:59:58.790Z,21.00
2022-09-15T20:03:22.799Z,21.00
2022-09-15T20:06:44.998Z,21.00
2022-09-15T20:10:07.743Z,21.00
2022-09-15T20:13:30.007Z,20.90
2022-09-15T20:16:54.196Z,20.90
2022-09-15T20:20:18.625Z,20.90
2022-09-15T20:23:40.875Z,20.90
2022-09-15T20:27:03.557Z,20.90
2022-09-15T20:30:26.209Z,20.90
2022-09-15T20:33:50.287Z,20.90
2022-09-15T20:37:12.593Z,20.70
2022-09-15T20:40:42.133Z,20.60
2022-09-15T20:44:06.135Z,20.60
2022-09-15T20:47:28.927Z,20.60
2022-09-15T20:50:50.961Z,20.70
2022-09-15T20:54:15.568Z,20.70
2022-09-15T20:57:38.096Z,20.90
2022-09-15T21:01:15.615Z,20.80
2022-09-15T21:04:37.786Z,20.80
2022-09-15T21:08:01.660Z,20.70
2022-09-15T21:11:26.805Z,20.50
2022-09-15T21:14:49.371Z,20.40
2022-09-15T21:18:12.117Z,20.40
2022-09-15T21:21:34.944Z,20.40
2022-09-15T21:24:57.235Z,20.20
2022-09-15T21:28:27.050Z,20.20
2022-09-15T21:31:56.727Z,20.20
2022-09-15T21:35:19.178Z,20.30
2022-09-15T21:38:44.416Z,20.30
2022-09-15T21:42:06.893Z,20.30
2022-09-15T21:45:30.584Z,20.30
2022-09-15T21:48:55.150Z,20.30
2022-09-15T21:52:17.424Z,20.20
2022-09-15T21:55:39.882Z,20.20
2022-09-15T21:59:03.524Z,20.10
2022-09-15T22:02:25.743Z,20.10
2022-09-15T22:05:48.224Z,20.00
2022-09-15T22:09:18.068Z,20.00
2022-09-15T22:12:39.990Z,20.00
2022-09-15T22:16:04.641Z,19.90
2022-09-15T22:19:26.851Z,19.90
2022-09-15T22:22:48.987Z,19.80
2022-09-15T22:26:18.720Z,19.70
2022-09-15T22:29:40.722Z,19.70
2022-09-15T22:33:02.667Z,19.70
2022-09-15T22:36:30.589Z,19.60
2022-09-15T22:39:59.658Z,19.60
2022-09-15T22:43:22.074Z,19.50
2022-09-15T22:46:44.146Z,19.50
2022-09-15T22:50:06.218Z,19.50
2022-09-15T22:53:28.305Z,19.50
2022-09-15T22:56:50.240Z,19.50
2022-09-15T23:00:12.741Z,19.40
2022-09-15T23:03:34.714Z,19.40
2022-09-15T23:06:56.673Z,19.30
2022-09-15T23:10:18.630Z,19.30
2022-09-15T23:13:41.741Z,19.30
2022-09-15T23:17:03.809Z,19.30
2022-09-15T23:20:25.805Z,19.30
2022-09-15T23:23:49.298Z,19.20
2022-09-15T23:27:11.294Z,19.00
2022-09-15T23:30:33.340Z,19.00
2022-09-15T23:33:55.364Z,18.90
2022-09-15T23:37:17.311Z,18.90
2022-09-15T23:40:44.490Z,18.90
2022-09-15T23:44:07.485Z,18.90
2022-09-15T23:47:29.833Z,18.90
2022-09-15T23:50:52.691Z,18.80
2022-09-15T23:54:14.877Z,18.80
2022-09-15T23:57:37.089Z,18.80
